Time;durP1;ratioP1;P1;durP2;ratioP2;P2;SDS_P1;SDS_P2;PMS_P1;PMS_P2;Temp;Humidity;BMP_temperature;BMP_pressure;BME280_temperature;BME280_humidity;BME280_pressure;Samples;Min_cycle;Max_cycle;Signal;HPM_P1;HPM_P2
2021/09/25 00:00:54;;;;;;;12.43;5.75;;;14.70;99.90;;;;;;5048579;28;20049;-71
2021/09/25 00:03:24;;;;;;;9.15;5.60;;;14.70;99.90;;;;;;5049944;28;20084;-70
2021/09/25 00:05:51;;;;;;;12.00;6.75;;;14.70;99.90;;;;;;5047832;28;20924;-71
2021/09/25 00:08:18;;;;;;;12.07;6.00;;;14.70;99.90;;;;;;5050166;28;20052;-71
2021/09/25 00:10:45;;;;;;;10.05;5.47;;;14.70;99.90;;;;;;5049950;28;20113;-70
2021/09/25 00:13:14;;;;;;;13.10;5.82;;;14.70;99.90;;;;;;5048240;28;20131;-70
2021/09/25 00:15:41;;;;;;;9.20;5.78;;;14.70;99.90;;;;;;5050073;28;20910;-71
2021/09/25 00:18:09;;;;;;;14.23;6.68;;;14.60;99.90;;;;;;5045608;28;20110;-70
2021/09/25 00:20:37;;;;;;;14.55;6.15;;;14.60;99.90;;;;;;5048921;28;20084;-70
2021/09/25 00:23:04;;;;;;;11.15;5.72;;;14.70;99.90;;;;;;5049394;28;20118;-70
2021/09/25 00:25:32;;;;;;;11.90;6.18;;;14.70;99.90;;;;;;5048370;28;20052;-71
2021/09/25 00:27:59;;;;;;;13.60;6.50;;;14.70;99.90;;;;;;5047100;28;20254;-70
2021/09/25 00:30:28;;;;;;;14.73;6.22;;;14.70;99.90;;;;;;5047417;28;20097;-70
2021/09/25 00:32:55;;;;;;;14.70;6.65;;;14.60;99.90;;;;;;5047820;28;20102;-70
2021/09/25 00:35:22;;;;;;;14.60;6.30;;;14.60;99.90;;;;;;5045874;28;20509;-70
2021/09/25 00:37:49;;;;;;;12.45;6.10;;;14.50;99.90;;;;;;5046171;28;20140;-71
2021/09/25 00:40:17;;;;;;;14.13;5.90;;;14.50;99.90;;;;;;5045322;28;20088;-71
2021/09/25 00:42:45;;;;;;;9.45;6.47;;;14.60;99.90;;;;;;5046123;28;20059;-70
2021/09/25 00:45:13;;;;;;;9.48;5.97;;;14.50;99.90;;;;;;5047377;28;20056;-70
2021/09/25 00:47:42;;;;;;;11.80;6.50;;;14.50;99.90;;;;;;5050062;28;20072;-70
2021/09/25 00:50:10;;;;;;;11.07;6.13;;;14.50;99.90;;;;;;5051990;28;20084;-70
2021/09/25 00:52:37;;;;;;;12.18;6.47;;;14.50;99.90;;;;;;5050617;28;20143;-70
2021/09/25 00:55:05;;;;;;;10.65;6.63;;;14.50;99.90;;;;;;5050294;28;20049;-70
2021/09/25 00:57:33;;;;;;;13.23;6.93;;;14.40;99.90;;;;;;5049774;28;20873;-70
2021/09/25 01:00:01;;;;;;;11.30;6.18;;;14.40;99.90;;;;;;5049425;28;20091;-71
2021/09/25 01:02:28;;;;;;;11.10;6.25;;;14.50;99.90;;;;;;5049423;28;20053;-70
2021/09/25 01:04:56;;;;;;;12.13;6.25;;;14.40;99.90;;;;;;5050422;28;20094;-70
2021/09/25 01:07:23;;;;;;;12.10;7.60;;;14.40;99.90;;;;;;5049392;28;20053;-70
2021/09/25 01:09:51;;;;;;;16.15;7.30;;;14.30;99.90;;;;;;5049123;28;20745;-70
2021/09/25 01:12:18;;;;;;;16.98;7.07;;;14.20;99.90;;;;;;5048371;28;20061;-70
2021/09/25 01:14:45;;;;;;;17.67;6.88;;;14.10;99.90;;;;;;5048663;28;20049;-71
2021/09/25 01:17:14;;;;;;;14.43;7.07;;;14.00;99.90;;;;;;5049129;28;20049;-70
2021/09/25 01:19:42;;;;;;;13.20;6.60;;;13.90;99.90;;;;;;5050449;28;20048;-70
2021/09/25 01:22:11;;;;;;;15.27;6.32;;;13.80;99.90;;;;;;5046665;28;20084;-70
2021/09/25 01:24:39;;;;;;;13.80;7.20;;;13.70;99.90;;;;;;5047207;28;21141;-70
2021/09/25 01:27:06;;;;;;;12.48;7.68;;;13.70;99.90;;;;;;5049660;28;20052;-70
2021/09/25 01:29:34;;;;;;;11.70;7.10;;;13.60;99.90;;;;;;5047244;28;20131;-70
2021/09/25 01:32:02;;;;;;;16.10;8.10;;;13.50;99.90;;;;;;5050655;28;20057;-70
2021/09/25 01:34:29;;;;;;;12.88;7.50;;;13.50;99.90;;;;;;5049441;28;20157;-70
2021/09/25 01:36:56;;;;;;;13.35;7.63;;;13.50;99.90;;;;;;5048353;28;20629;-70
2021/09/25 01:39:24;;;;;;;15.15;7.80;;;13.50;99.90;;;;;;5049329;28;20513;-70
2021/09/25 01:41:51;;;;;;;15.38;7.85;;;13.50;99.90;;;;;;5047094;28;20107;-70
2021/09/25 01:44:18;;;;;;;12.90;7.95;;;13.60;99.90;;;;;;5048438;28;20088;-70
2021/09/25 01:46:45;;;;;;;16.52;7.97;;;13.60;99.90;;;;;;5048149;28;20088;-70
2021/09/25 01:49:12;;;;;;;14.68;8.35;;;13.60;99.90;;;;;;5047776;28;20057;-70
2021/09/25 01:51:39;;;;;;;15.23;7.45;;;13.60;99.90;;;;;;5049551;28;20048;-70
2021/09/25 01:54:06;;;;;;;13.77;8.85;;;13.60;99.90;;;;;;5048277;28;20057;-70
2021/09/25 01:56:35;;;;;;;17.55;8.45;;;13.60;99.90;;;;;;5046591;28;20080;-70
2021/09/25 01:59:02;;;;;;;13.15;8.35;;;13.60;99.90;;;;;;5049932;28;20049;-70
2021/09/25 02:01:29;;;;;;;13.18;7.72;;;13.50;99.90;;;;;;5048924;28;20084;-70
2021/09/25 02:03:56;;;;;;;14.23;7.88;;;13.50;99.90;;;;;;5048549;28;20653;-70
2021/09/25 02:06:23;;;;;;;15.52;8.60;;;13.50;99.90;;;;;;5048887;28;20466;-70
2021/09/25 02:08:50;;;;;;;17.42;8.77;;;13.50;99.90;;;;;;5047266;28;20479;-70
2021/09/25 02:11:17;;;;;;;14.35;7.93;;;13.40;99.90;;;;;;5047109;28;20463;-70
2021/09/25 02:13:46;;;;;;;13.95;8.65;;;13.40;99.90;;;;;;5048080;28;20048;-70
2021/09/25 02:16:13;;;;;;;15.70;8.70;;;13.30;99.90;;;;;;5048034;28;20166;-70
2021/09/25 02:18:40;;;;;;;12.57;8.55;;;13.20;99.90;;;;;;5047124;28;20052;-70
2021/09/25 02:21:07;;;;;;;14.77;8.50;;;13.10;99.90;;;;;;5048292;28;20052;-70
2021/09/25 02:23:35;;;;;;;15.13;8.98;;;13.10;99.90;;;;;;5047770;28;20052;-70
2021/09/25 02:26:02;;;;;;;14.90;8.93;;;13.00;99.90;;;;;;5047234;28;20052;-70
2021/09/25 02:28:30;;;;;;;14.52;9.35;;;13.00;99.90;;;;;;5047434;28;20045;-70
2021/09/25 02:30:59;;;;;;;15.90;9.18;;;13.00;99.90;;;;;;5047115;28;20064;-70
2021/09/25 02:33:26;;;;;;;16.27;9.40;;;12.90;99.90;;;;;;5047758;28;20053;-70
2021/09/25 02:35:53;;;;;;;14.65;8.98;;;12.80;99.90;;;;;;5048556;28;20554;-70
2021/09/25 02:38:21;;;;;;;14.93;9.80;;;12.80;99.90;;;;;;5048305;28;20520;-70
2021/09/25 02:40:48;;;;;;;16.60;10.18;;;12.80;99.90;;;;;;5048292;28;20110;-70
2021/09/25 02:43:15;;;;;;;17.55;10.52;;;12.80;99.90;;;;;;5046917;28;20480;-70
2021/09/25 02:45:42;;;;;;;16.73;10.07;;;12.80;99.90;;;;;;5047989;28;20090;-69
2021/09/25 02:48:10;;;;;;;17.30;9.82;;;12.80;99.90;;;;;;5047275;28;20048;-70
2021/09/25 02:50:38;;;;;;;17.58;9.80;;;12.70;99.90;;;;;;5048175;28;20044;-70
2021/09/25 02:53:05;;;;;;;16.45;9.88;;;12.60;99.90;;;;;;5047775;28;20592;-70
2021/09/25 02:55:31;;;;;;;15.60;9.52;;;12.60;99.90;;;;;;5046056;28;20179;-70
2021/09/25 02:57:58;;;;;;;14.52;9.25;;;12.60;99.90;;;;;;5046499;28;20088;-70
2021/09/25 03:00:25;;;;;;;18.45;10.15;;;12.60;99.90;;;;;;5045469;28;20084;-70
2021/09/25 03:02:53;;;;;;;15.75;10.50;;;12.50;99.90;;;;;;5046449;28;20048;-70
2021/09/25 03:05:21;;;;;;;14.85;8.88;;;12.40;99.90;;;;;;5045777;28;20052;-70
2021/09/25 03:07:48;;;;;;;14.05;9.82;;;12.40;99.90;;;;;;5044882;28;20048;-70
2021/09/25 03:10:15;;;;;;;16.10;9.95;;;12.40;99.90;;;;;;5045474;28;20402;-70
2021/09/25 03:12:43;;;;;;;22.95;10.25;;;12.40;99.90;;;;;;5048729;28;20570;-69
2021/09/25 03:15:10;;;;;;;19.52;11.63;;;12.40;99.90;;;;;;5046706;28;20088;-70
2021/09/25 03:17:37;;;;;;;16.92;10.88;;;12.40;99.90;;;;;;5045684;28;20424;-70
2021/09/25 03:20:06;;;;;;;17.63;10.25;;;12.30;99.90;;;;;;5046439;28;20045;-70
2021/09/25 03:22:35;;;;;;;18.60;10.45;;;12.30;99.90;;;;;;5046903;28;20504;-70
2021/09/25 03:25:07;;;;;;;18.75;10.40;;;12.30;99.90;;;;;;5044651;28;20141;-70
2021/09/25 03:27:34;;;;;;;15.95;10.82;;;12.20;99.90;;;;;;5048438;28;20052;-70
2021/09/25 03:30:01;;;;;;;16.90;10.93;;;12.20;99.90;;;;;;5046154;28;20106;-70
2021/09/25 03:32:28;;;;;;;16.05;11.23;;;12.30;99.90;;;;;;5044019;28;20045;-70
2021/09/25 03:34:55;;;;;;;16.58;10.70;;;12.20;99.90;;;;;;5047110;28;20060;-70
2021/09/25 03:37:22;;;;;;;15.57;10.70;;;12.20;99.90;;;;;;5045141;28;20139;-70
2021/09/25 03:39:50;;;;;;;18.17;10.48;;;12.10;99.90;;;;;;5047265;28;20398;-70
2021/09/25 03:42:17;;;;;;;19.77;11.07;;;12.00;99.90;;;;;;5046542;28;20080;-70
2021/09/25 03:44:44;;;;;;;18.40;11.18;;;11.90;99.90;;;;;;5046743;28;20546;-70
2021/09/25 03:47:12;;;;;;;15.02;10.60;;;11.90;99.90;;;;;;5046050;28;20057;-70
2021/09/25 03:49:39;;;;;;;18.02;10.70;;;11.90;99.90;;;;;;5047557;28;20049;-70
2021/09/25 03:52:06;;;;;;;24.45;10.90;;;11.90;99.90;;;;;;5044002;28;20048;-70
2021/09/25 03:54:33;;;;;;;19.00;11.23;;;12.00;99.90;;;;;;5047156;28;20131;-70
2021/09/25 03:57:01;;;;;;;18.95;10.90;;;11.90;99.90;;;;;;5047981;28;20092;-70
2021/09/25 03:59:28;;;;;;;20.95;11.88;;;11.90;99.90;;;;;;5047328;28;20102;-70
2021/09/25 04:01:55;;;;;;;18.88;11.27;;;11.80;99.90;;;;;;5047494;28;20113;-70
2021/09/25 04:04:22;;;;;;;19.00;10.73;;;11.80;99.90;;;;;;5046650;28;20098;-70
2021/09/25 04:06:49;;;;;;;20.85;11.18;;;11.70;99.90;;;;;;5047684;28;20048;-70
2021/09/25 04:09:16;;;;;;;16.20;11.32;;;11.70;99.90;;;;;;5053173;28;20138;-70
2021/09/25 04:11:48;;;;;;;21.63;12.50;;;11.70;99.90;;;;;;5050537;28;20045;-70
2021/09/25 04:14:17;;;;;;;20.90;11.57;;;11.70;99.90;;;;;;5052027;28;20053;-70
2021/09/25 04:16:44;;;;;;;19.58;11.43;;;11.60;99.90;;;;;;5045029;28;20117;-70
2021/09/25 04:19:11;;;;;;;18.35;12.48;;;11.60;99.90;;;;;;5045977;28;20049;-70
2021/09/25 04:21:38;;;;;;;18.67;10.88;;;11.50;99.90;;;;;;5052694;28;20049;-70
2021/09/25 04:24:06;;;;;;;18.40;11.90;;;11.60;99.90;;;;;;5055643;28;20044;-70
2021/09/25 04:26:33;;;;;;;17.63;11.77;;;11.50;99.90;;;;;;5058493;28;20094;-70
2021/09/25 04:29:00;;;;;;;19.10;11.38;;;11.50;99.90;;;;;;5057499;28;20091;-70
2021/09/25 04:31:28;;;;;;;19.45;12.00;;;11.50;99.90;;;;;;5056672;28;20516;-70
2021/09/25 04:33:55;;;;;;;19.65;13.07;;;11.40;99.90;;;;;;5056576;28;20087;-70
2021/09/25 04:36:22;;;;;;;16.95;11.25;;;11.40;99.90;;;;;;5053922;28;20080;-70
2021/09/25 04:38:49;;;;;;;20.75;12.57;;;11.40;99.90;;;;;;5057176;28;20444;-70
2021/09/25 04:41:16;;;;;;;19.63;13.35;;;11.40;99.90;;;;;;5054128;28;20048;-70
2021/09/25 04:43:43;;;;;;;16.90;12.85;;;11.40;99.90;;;;;;5054206;28;20489;-70
2021/09/25 04:46:10;;;;;;;21.20;13.25;;;11.30;99.90;;;;;;5050435;28;20896;-70
2021/09/25 04:48:38;;;;;;;20.42;12.80;;;11.30;99.90;;;;;;5053857;28;20105;-70
2021/09/25 04:51:05;;;;;;;17.95;12.10;;;11.30;99.90;;;;;;5053782;28;20059;-70
2021/09/25 04:53:32;;;;;;;23.35;12.93;;;11.30;99.90;;;;;;5053076;28;20153;-70
2021/09/25 04:56:00;;;;;;;21.77;12.88;;;11.30;99.90;;;;;;5058045;28;20056;-70
2021/09/25 04:58:29;;;;;;;18.05;12.57;;;11.30;99.90;;;;;;5056842;28;20045;-70
2021/09/25 05:00:56;;;;;;;23.85;13.15;;;11.30;99.90;;;;;;5055920;28;20048;-70
2021/09/25 05:03:23;;;;;;;17.17;12.85;;;11.30;99.90;;;;;;5058150;28;20084;-70
2021/09/25 05:05:52;;;;;;;17.17;12.32;;;11.30;99.90;;;;;;5056058;28;20052;-70
2021/09/25 05:08:19;;;;;;;19.95;12.30;;;11.30;99.90;;;;;;5056750;28;20052;-70
2021/09/25 05:10:46;;;;;;;19.98;13.32;;;11.30;99.90;;;;;;5059465;28;20083;-70
2021/09/25 05:13:13;;;;;;;24.23;13.95;;;11.30;99.90;;;;;;5057613;28;20084;-70
2021/09/25 05:15:40;;;;;;;22.60;13.13;;;11.30;99.90;;;;;;5059451;28;20121;-70
2021/09/25 05:18:07;;;;;;;19.00;12.88;;;11.40;99.90;;;;;;5057975;28;20104;-70
2021/09/25 05:20:34;;;;;;;21.58;13.13;;;11.30;99.90;;;;;;5056581;28;20453;-70
2021/09/25 05:23:03;;;;;;;21.13;13.02;;;11.30;99.90;;;;;;5057377;28;20474;-70
2021/09/25 05:25:30;;;;;;;21.85;13.43;;;11.30;99.90;;;;;;5056793;28;20048;-70
2021/09/25 05:27:57;;;;;;;21.25;12.55;;;11.30;99.90;;;;;;5058027;28;20115;-70
2021/09/25 05:30:24;;;;;;;17.23;12.10;;;11.40;99.90;;;;;;5055775;28;20627;-70
2021/09/25 05:32:51;;;;;;;20.20;11.70;;;11.40;99.90;;;;;;5053358;28;20084;-70
2021/09/25 05:35:17;;;;;;;21.05;13.35;;;11.40;99.90;;;;;;5054203;28;20576;-70
2021/09/25 05:37:44;;;;;;;21.88;13.73;;;11.30;99.90;;;;;;5054456;28;20107;-70
2021/09/25 05:40:13;;;;;;;24.27;14.55;;;11.30;99.90;;;;;;5053952;28;20080;-70
2021/09/25 05:42:41;;;;;;;21.90;13.35;;;11.40;99.90;;;;;;5053707;28;20084;-70
2021/09/25 05:45:09;;;;;;;20.90;12.75;;;11.40;99.90;;;;;;5049502;28;20106;-70
2021/09/25 05:47:36;;;;;;;20.30;12.60;;;11.30;99.90;;;;;;5052804;28;20049;-70
2021/09/25 05:50:03;;;;;;;18.25;12.45;;;11.40;99.90;;;;;;5053660;28;20053;-70
2021/09/25 05:52:30;;;;;;;20.48;12.90;;;11.40;99.90;;;;;;5052397;28;20105;-70
2021/09/25 05:54:57;;;;;;;21.00;12.85;;;11.40;99.90;;;;;;5055019;28;20084;-70
2021/09/25 05:57:25;;;;;;;21.30;12.25;;;11.50;99.90;;;;;;5054072;28;20137;-70
2021/09/25 05:59:52;;;;;;;21.30;12.40;;;11.50;99.90;;;;;;5052788;28;20110;-70
2021/09/25 06:02:19;;;;;;;21.73;13.40;;;11.50;99.90;;;;;;5055085;28;20463;-70
2021/09/25 06:04:46;;;;;;;19.85;12.18;;;11.60;99.90;;;;;;5054220;28;20080;-70
2021/09/25 06:07:14;;;;;;;18.48;12.15;;;11.70;99.90;;;;;;5052433;28;20102;-70
2021/09/25 06:09:41;;;;;;;19.33;12.38;;;11.70;99.90;;;;;;5053414;28;20056;-70
2021/09/25 06:12:09;;;;;;;19.27;12.38;;;11.70;99.90;;;;;;5053072;28;20059;-70
2021/09/25 06:14:37;;;;;;;20.02;12.98;;;11.80;99.90;;;;;;5051938;28;20084;-70
2021/09/25 06:17:05;;;;;;;17.35;12.18;;;11.80;99.90;;;;;;5051144;28;20048;-70
2021/09/25 06:19:32;;;;;;;19.10;12.60;;;11.70;99.90;;;;;;5052045;28;20433;-70
2021/09/25 06:21:59;;;;;;;17.90;12.40;;;11.80;99.90;;;;;;5050205;28;20508;-70
2021/09/25 06:24:26;;;;;;;19.77;12.65;;;12.00;99.90;;;;;;5051137;28;20052;-70
2021/09/25 06:26:53;;;;;;;18.42;12.05;;;12.10;99.90;;;;;;5049605;28;20480;-70
2021/09/25 06:29:20;;;;;;;18.15;11.55;;;12.10;99.90;;;;;;5049764;28;20140;-70
2021/09/25 06:31:48;;;;;;;17.15;11.63;;;12.10;99.90;;;;;;5049952;28;20133;-70
2021/09/25 06:34:15;;;;;;;19.10;12.77;;;12.20;99.90;;;;;;5048729;28;20096;-70
2021/09/25 06:36:42;;;;;;;18.83;11.95;;;12.20;99.90;;;;;;5049474;28;20096;-70
2021/09/25 06:39:10;;;;;;;19.85;11.35;;;12.30;99.90;;;;;;5051139;28;20433;-71
2021/09/25 06:41:37;;;;;;;20.90;12.05;;;12.40;99.90;;;;;;5049790;28;20505;-70
2021/09/25 06:44:04;;;;;;;18.40;11.52;;;12.40;99.90;;;;;;5051084;28;20155;-70
2021/09/25 06:46:31;;;;;;;17.30;10.65;;;12.50;99.90;;;;;;5050357;28;20045;-70
2021/09/25 06:48:59;;;;;;;15.65;11.13;;;12.50;99.90;;;;;;5049227;28;20133;-70
2021/09/25 06:51:27;;;;;;;18.60;11.30;;;12.60;99.90;;;;;;5050511;28;20052;-70
2021/09/25 06:53:54;;;;;;;19.08;11.25;;;12.70;99.90;;;;;;5050081;28;20091;-70
2021/09/25 06:56:21;;;;;;;16.55;11.10;;;12.80;99.90;;;;;;5049627;28;20304;-70
2021/09/25 06:58:49;;;;;;;17.92;10.95;;;12.80;99.90;;;;;;5051630;28;20052;-70
2021/09/25 07:01:16;;;;;;;18.55;11.02;;;13.00;99.90;;;;;;5049187;28;20053;-70
2021/09/25 07:03:43;;;;;;;18.77;11.18;;;13.10;99.90;;;;;;5049582;28;20118;-70
2021/09/25 07:06:11;;;;;;;18.00;10.50;;;13.30;99.90;;;;;;5047513;28;20053;-70
2021/09/25 07:08:38;;;;;;;21.58;10.73;;;13.40;99.90;;;;;;5050880;28;20083;-70
2021/09/25 07:11:06;;;;;;;20.15;10.93;;;13.40;99.90;;;;;;5047685;28;20092;-70
2021/09/25 07:13:33;;;;;;;17.30;10.38;;;13.50;99.90;;;;;;5050475;28;20084;-71
2021/09/25 07:16:00;;;;;;;16.88;10.77;;;13.50;99.90;;;;;;5049888;28;20137;-70
2021/09/25 07:18:27;;;;;;;18.85;11.20;;;13.70;99.90;;;;;;5049099;28;20048;-71
2021/09/25 07:20:54;;;;;;;18.05;10.30;;;13.80;99.90;;;;;;5050827;28;20082;-71
2021/09/25 07:23:22;;;;;;;19.38;10.18;;;13.80;99.90;;;;;;5048832;28;20143;-71
2021/09/25 07:25:49;;;;;;;16.45;9.82;;;14.00;99.90;;;;;;5048804;28;20504;-70
2021/09/25 07:28:16;;;;;;;13.40;8.95;;;14.10;99.90;;;;;;5049997;28;20144;-71
2021/09/25 07:30:44;;;;;;;21.15;10.25;;;14.20;99.90;;;;;;5051323;28;20114;-70
2021/09/25 07:33:11;;;;;;;21.98;10.85;;;14.40;99.90;;;;;;5053321;28;20139;-71
2021/09/25 07:35:38;;;;;;;18.23;10.13;;;14.50;99.90;;;;;;5051490;28;20052;-70
2021/09/25 07:38:06;;;;;;;16.10;9.80;;;14.60;99.90;;;;;;5053305;28;20083;-71
2021/09/25 07:40:35;;;;;;;15.10;9.30;;;14.70;99.90;;;;;;5051200;28;20113;-70
2021/09/25 07:43:04;;;;;;;17.05;10.75;;;14.70;99.90;;;;;;5052210;28;20106;-70
2021/09/25 07:45:31;;;;;;;16.98;10.25;;;14.80;99.90;;;;;;5050147;28;20587;-71
2021/09/25 07:47:58;;;;;;;21.92;10.82;;;15.00;99.90;;;;;;5052590;28;20052;-71
2021/09/25 07:50:25;;;;;;;17.35;10.13;;;15.10;99.90;;;;;;5053592;28;20081;-70
2021/09/25 07:52:55;;;;;;;14.63;9.85;;;15.10;99.90;;;;;;5052345;28;20083;-70
2021/09/25 07:55:23;;;;;;;16.85;10.02;;;15.30;99.90;;;;;;5051273;28;20057;-70
2021/09/25 07:57:52;;;;;;;17.77;9.60;;;15.80;99.90;;;;;;5052584;28;20452;-70
2021/09/25 08:00:19;;;;;;;17.55;9.98;;;16.20;99.90;;;;;;5052437;28;20474;-70
2021/09/25 08:02:47;;;;;;;16.73;9.75;;;16.00;99.90;;;;;;5050802;28;20153;-70
2021/09/25 08:05:14;;;;;;;20.90;10.00;;;16.60;99.90;;;;;;5051443;28;20141;-71
2021/09/25 08:07:41;;;;;;;18.05;9.07;;;17.50;99.90;;;;;;5052753;28;20076;-70
2021/09/25 08:10:11;;;;;;;14.77;9.50;;;17.70;99.90;;;;;;5045595;28;20106;-70
2021/09/25 08:12:38;;;;;;;24.85;9.02;;;19.70;99.90;;;;;;5051639;28;20612;-70
2021/09/25 08:15:09;;;;;;;15.50;8.95;;;21.10;99.90;;;;;;5050414;28;20131;-70
2021/09/25 08:17:36;;;;;;;13.82;8.48;;;21.60;99.90;;;;;;5049982;28;20067;-72
2021/09/25 08:20:06;;;;;;;15.27;8.70;;;23.10;99.90;;;;;;5050974;28;21186;-72
2021/09/25 08:22:33;;;;;;;14.55;8.65;;;22.50;99.90;;;;;;5049470;28;20060;-72
2021/09/25 08:25:00;;;;;;;13.77;9.23;;;23.30;99.90;;;;;;5049346;28;20517;-72
2021/09/25 08:27:27;;;;;;;12.93;8.40;;;24.00;99.90;;;;;;5046734;28;20095;-73
2021/09/25 08:29:54;;;;;;;12.60;8.10;;;24.30;99.90;;;;;;5050131;28;20103;-72
2021/09/25 08:32:22;;;;;;;16.23;8.63;;;24.40;99.90;;;;;;5049572;28;20498;-73
2021/09/25 08:34:49;;;;;;;11.68;7.88;;;25.00;99.90;;;;;;5051568;28;20049;-72
2021/09/25 08:37:16;;;;;;;13.60;7.93;;;25.70;99.90;;;;;;5045253;28;20084;-72
2021/09/25 08:39:43;;;;;;;13.52;8.48;;;25.10;99.90;;;;;;5048043;28;20131;-72
2021/09/25 08:42:13;;;;;;;10.25;7.75;;;25.50;99.90;;;;;;5049817;28;20127;-72
2021/09/25 08:44:42;;;;;;;10.35;7.60;;;25.90;99.90;;;;;;5050391;28;20048;-73
2021/09/25 08:47:10;;;;;;;11.82;7.68;;;26.30;99.90;;;;;;5047949;28;20763;-72
2021/09/25 08:49:38;;;;;;;9.52;7.20;;;24.90;99.90;;;;;;5051505;28;20493;-72
2021/09/25 08:52:06;;;;;;;10.45;7.38;;;25.80;99.90;;;;;;5048452;28;21560;-73
2021/09/25 08:54:32;;;;;;;10.98;8.05;;;26.50;99.90;;;;;;5051540;28;20135;-71
2021/09/25 08:56:59;;;;;;;10.18;7.35;;;25.60;99.90;;;;;;5051568;28;20057;-70
2021/09/25 08:59:26;;;;;;;11.85;7.68;;;26.40;99.90;;;;;;5049166;28;20083;-71
2021/09/25 09:01:53;;;;;;;12.80;7.80;;;25.80;99.90;;;;;;5052429;28;20148;-71
2021/09/25 09:04:21;;;;;;;15.38;7.93;;;25.90;99.90;;;;;;5048521;28;20084;-70
2021/09/25 09:06:50;;;;;;;9.77;7.55;;;25.50;99.90;;;;;;5050080;28;20047;-70
2021/09/25 09:09:17;;;;;;;12.23;7.57;;;25.50;99.90;;;;;;5051411;28;20591;-71
2021/09/25 09:11:47;;;;;;;9.35;7.47;;;25.40;99.90;;;;;;5052611;28;20153;-71
2021/09/25 09:14:16;;;;;;;15.40;7.28;;;25.90;99.90;;;;;;5051256;28;20444;-71
2021/09/25 09:16:54;;;;;;;9.75;6.75;;;27.30;99.90;;;;;;5049972;28;20091;-71
2021/09/25 09:19:21;;;;;;;10.32;6.97;;;28.40;99.90;;;;;;5050525;28;20103;-71
2021/09/25 09:21:51;;;;;;;9.85;6.22;;;28.60;99.90;;;;;;5050768;28;20123;-71
2021/09/25 09:24:18;;;;;;;9.80;7.03;;;28.60;99.90;;;;;;5051558;28;20063;-71
2021/09/25 09:26:45;;;;;;;10.27;7.13;;;28.50;99.90;;;;;;5052564;28;20096;-71
2021/09/25 09:29:12;;;;;;;10.63;7.38;;;28.40;99.90;;;;;;5051148;28;20566;-71
2021/09/25 09:31:39;;;;;;;11.27;7.10;;;28.90;99.90;;;;;;5051950;28;20460;-71
2021/09/25 09:34:08;;;;;;;10.98;5.88;;;28.20;99.90;;;;;;5051971;28;20139;-71
2021/09/25 09:36:36;;;;;;;9.38;5.88;;;29.20;99.90;;;;;;5049881;28;20067;-70
2021/09/25 09:39:10;;;;;;;13.00;6.50;;;29.60;99.90;;;;;;5051606;28;20052;-71
2021/09/25 09:41:39;;;;;;;8.65;6.53;;;28.60;99.90;;;;;;5050052;28;20041;-71
2021/09/25 09:44:08;;;;;;;12.07;6.47;;;29.40;99.90;;;;;;5050702;28;20053;-71
2021/09/25 09:46:40;;;;;;;8.40;6.15;;;28.10;99.90;;;;;;5050199;28;20091;-71
2021/09/25 09:49:09;;;;;;;8.85;5.78;;;28.60;99.90;;;;;;5052338;28;20088;-71
2021/09/25 09:51:44;;;;;;;8.88;6.32;;;29.20;99.90;;;;;;5052416;28;20090;-71
2021/09/25 09:54:19;;;;;;;16.27;6.72;;;30.40;99.90;;;;;;5050779;28;20103;-71
2021/09/25 09:56:47;;;;;;;8.25;5.80;;;29.60;99.90;;;;;;5050393;28;20064;-71
2021/09/25 09:59:14;;;;;;;9.45;6.45;;;30.50;99.90;;;;;;5050487;28;20084;-71
2021/09/25 10:01:42;;;;;;;10.88;6.78;;;31.10;99.90;;;;;;5049860;28;20048;-71
2021/09/25 10:04:10;;;;;;;11.35;6.10;;;31.70;99.90;;;;;;5051264;28;20048;-72
2021/09/25 10:06:37;;;;;;;10.20;6.88;;;32.00;99.90;;;;;;5051799;28;20132;-72
2021/09/25 10:09:08;;;;;;;8.48;6.90;;;31.40;99.90;;;;;;5051015;28;20150;-72
2021/09/25 10:11:38;;;;;;;8.65;6.25;;;31.00;99.90;;;;;;5048041;28;20560;-72
2021/09/25 10:14:05;;;;;;;8.02;6.78;;;31.50;99.90;;;;;;5048689;28;20580;-72
2021/09/25 10:16:33;;;;;;;13.10;6.38;;;32.30;99.90;;;;;;5046896;28;20048;-72
2021/09/25 10:19:03;;;;;;;11.35;6.70;;;32.80;99.90;;;;;;5049542;28;20049;-72
2021/09/25 10:21:33;;;;;;;11.10;7.10;;;32.60;99.90;;;;;;5047539;28;20075;-71
2021/09/25 10:24:03;;;;;;;9.05;6.45;;;33.10;99.90;;;;;;5048591;28;20052;-72
2021/09/25 10:26:31;;;;;;;9.27;6.88;;;34.40;99.90;;;;;;5047931;28;20442;-72
2021/09/25 10:29:01;;;;;;;10.20;7.28;;;33.90;99.70;;;;;;5051571;28;20080;-72
2021/09/25 10:31:28;;;;;;;10.05;7.00;;;33.30;99.90;;;;;;5048908;28;20590;-72
2021/09/25 10:34:07;;;;;;;10.10;6.30;;;34.60;99.80;;;;;;5047788;28;20765;-72
2021/09/25 10:36:38;;;;;;;10.32;7.25;;;34.60;99.30;;;;;;5048105;28;20452;-73
2021/09/25 10:39:23;;;;;;;11.10;7.43;;;34.90;99.30;;;;;;5047315;28;20133;-72
2021/09/25 10:41:57;;;;;;;9.40;6.38;;;35.20;98.60;;;;;;5050896;28;20052;-72
2021/09/25 10:44:28;;;;;;;11.43;7.40;;;35.90;98.10;;;;;;5051411;28;20079;-72
2021/09/25 10:47:06;;;;;;;9.07;7.15;;;35.80;97.50;;;;;;5046804;28;20080;-72
2021/09/25 10:49:58;;;;;;;8.85;6.93;;;35.50;97.30;;;;;;5048137;28;20084;-71
2021/09/25 10:52:41;;;;;;;10.95;7.35;;;36.40;96.80;;;;;;5049341;28;20111;-71
2021/09/25 10:55:20;;;;;;;10.02;6.55;;;34.70;96.20;;;;;;5047242;28;20045;-72
2021/09/25 10:58:15;;;;;;;13.43;6.80;;;37.00;96.50;;;;;;5046352;28;20114;-71
2021/09/25 11:00:59;;;;;;;8.48;6.80;;;35.50;96.50;;;;;;5047881;28;20080;-71
2021/09/25 11:03:56;;;;;;;10.93;6.80;;;34.60;97.50;;;;;;5047317;28;20057;-71
2021/09/25 11:06:32;;;;;;;8.75;6.35;;;36.30;96.60;;;;;;5044385;28;20059;-71
2021/09/25 11:09:01;;;;;;;10.48;6.07;;;37.40;96.50;;;;;;5048036;28;20094;-72
2021/09/25 11:11:37;;;;;;;8.20;6.10;;;38.00;95.80;;;;;;5046227;28;20048;-71
2021/09/25 11:14:15;;;;;;;7.85;5.80;;;38.10;94.90;;;;;;5049315;28;20101;-71
2021/09/25 11:16:49;;;;;;;9.70;6.72;;;38.30;94.20;;;;;;5047500;28;20052;-71
2021/09/25 11:19:50;;;;;;;12.02;6.70;;;36.00;95.50;;;;;;5046725;28;20084;-71
2021/09/25 11:22:22;;;;;;;10.07;6.20;;;35.60;96.00;;;;;;5048221;28;20141;-72
2021/09/25 11:24:52;;;;;;;9.65;6.47;;;36.60;95.40;;;;;;5052388;28;20048;-71
2021/09/25 11:27:22;;;;;;;11.98;6.78;;;37.80;94.70;;;;;;5049315;28;20052;-72
2021/09/25 11:30:11;;;;;;;9.55;5.88;;;36.70;94.50;;;;;;5044237;28;20531;-72
2021/09/25 11:32:43;;;;;;;7.57;6.30;;;37.90;94.60;;;;;;5041633;28;20152;-71
2021/09/25 11:35:14;;;;;;;11.00;6.50;;;37.70;93.70;;;;;;5048416;28;20056;-71
2021/09/25 11:37:49;;;;;;;9.32;6.15;;;37.50;94.60;;;;;;5047653;28;20045;-71
2021/09/25 11:40:17;;;;;;;7.43;5.25;;;39.30;93.70;;;;;;5045197;28;20223;-71
2021/09/25 11:42:44;;;;;;;7.45;5.72;;;40.20;93.00;;;;;;5047044;28;20137;-71
2021/09/25 11:45:14;;;;;;;8.48;5.07;;;38.60;91.90;;;;;;5046099;28;20103;-71
2021/09/25 11:47:44;;;;;;;10.35;6.57;;;37.50;92.90;;;;;;5046763;28;20052;-71
2021/09/25 11:50:18;;;;;;;9.98;5.68;;;37.50;92.50;;;;;;5044626;28;20076;-72
2021/09/25 11:52:46;;;;;;;8.07;5.30;;;37.70;93.60;;;;;;5045575;28;20084;-72
2021/09/25 11:55:14;;;;;;;7.68;5.97;;;38.00;92.90;;;;;;5044757;28;20704;-72
2021/09/25 11:57:47;;;;;;;8.57;5.70;;;36.90;93.10;;;;;;5045561;28;20681;-72
2021/09/25 12:00:21;;;;;;;7.47;6.10;;;35.70;93.60;;;;;;5047459;28;20136;-72
2021/09/25 12:24:01;;;;;;;10.95;5.43;;;32.00;93.40;;;;;;4912325;29;20046;-89
2021/09/25 12:26:32;;;;;;;8.50;5.00;;;31.60;94.90;;;;;;4911606;29;20103;-89
2021/09/25 12:29:01;;;;;;;8.10;4.60;;;31.40;95.40;;;;;;4922334;29;20059;-88
2021/09/25 12:31:30;;;;;;;8.73;6.55;;;31.60;95.70;;;;;;4996417;28;20060;-89
2021/09/25 12:33:59;;;;;;;9.25;6.03;;;30.00;96.10;;;;;;5011997;28;20050;-89
2021/09/25 12:36:27;;;;;;;9.10;5.20;;;30.30;96.40;;;;;;5011944;28;20136;-89
2021/09/25 12:38:59;;;;;;;7.72;5.25;;;32.10;95.30;;;;;;5011020;28;20101;-90
2021/09/25 12:41:29;;;;;;;10.38;6.18;;;33.00;94.50;;;;;;5015849;28;20050;-90
2021/09/25 12:43:58;;;;;;;9.80;5.03;;;32.20;95.00;;;;;;5026510;28;20054;-88
2021/09/25 12:46:27;;;;;;;10.07;5.60;;;32.60;94.80;;;;;;5024577;28;20064;-88
2021/09/25 12:49:06;;;;;;;9.18;4.97;;;31.40;94.50;;;;;;5021624;28;20057;-89
2021/09/25 12:51:35;;;;;;;7.55;5.35;;;32.70;95.20;;;;;;5014142;28;20054;-90
2021/09/25 12:54:05;;;;;;;10.40;5.47;;;32.60;94.70;;;;;;5014427;28;20107;-89
2021/09/25 12:56:38;;;;;;;10.18;5.53;;;32.00;94.70;;;;;;5018904;28;20050;-89
2021/09/25 12:59:07;;;;;;;7.60;4.78;;;31.50;94.20;;;;;;5018708;28;20048;-89
2021/09/25 13:01:34;;;;;;;8.40;4.68;;;31.30;93.60;;;;;;5014189;28;20160;-89
2021/09/25 13:04:18;;;;;;;7.95;4.93;;;32.00;94.00;;;;;;5014286;28;20045;-89